CMP82T SEGU-SEQM
Flight info
| Callsign | CMP82T |
|---|---|
| Flight time | 0h 36m |
| Altitude | 22000 |
| Route | DCT GYV G675 PAMIS/N0360F210 DCT QSV DCT |
| Aircraft | B739/M-SDE2E3FGHIRWXY/LB1 |
Departure
| Time | 2026-04-29 16:36 |
|---|---|
| Airport | José Joaquín de Olmedo International Airport (SEGU) |
Arrival
| Time | 2026-04-29 17:12 |
|---|---|
| Airport | Mariscal Sucre International Airport (SEQM) |
| Time | Latitude | Longitude | Altitude | Speed | Heading |
|---|---|---|---|---|---|
| 2026-04-29 16:02 | -2.15019 | -79.88417 | 28 ft | 0 kts | 300° |
| 2026-04-29 16:24 | -2.15024 | -79.88409 | 28 ft | 2 kts | 300° |
| 2026-04-29 16:24 | -2.15032 | -79.88395 | 28 ft | 2 kts | 300° |
| 2026-04-29 16:25 | -2.15040 | -79.88381 | 28 ft | 2 kts | 300° |
| 2026-04-29 16:25 | -2.15047 | -79.88369 | 28 ft | 1 kts | 300° |
| 2026-04-29 16:25 | -2.15050 | -79.88363 | 28 ft | 1 kts | 300° |
| 2026-04-29 16:25 | -2.15054 | -79.88356 | 28 ft | 1 kts | 331° |
| 2026-04-29 16:26 | -2.15059 | -79.88354 | 28 ft | 0 kts | 25° |
| 2026-04-29 16:30 | -2.15023 | -79.88334 | 28 ft | 10 kts | 29° |
| 2026-04-29 16:30 | -2.14965 | -79.88300 | 28 ft | 10 kts | 30° |
| 2026-04-29 16:30 | -2.14907 | -79.88267 | 28 ft | 9 kts | 30° |
| 2026-04-29 16:30 | -2.14851 | -79.88235 | 28 ft | 9 kts | 30° |
| 2026-04-29 16:31 | -2.14797 | -79.88203 | 28 ft | 9 kts | 40° |
| 2026-04-29 16:31 | -2.14794 | -79.88146 | 28 ft | 9 kts | 114° |
| 2026-04-29 16:31 | -2.14823 | -79.88094 | 28 ft | 9 kts | 120° |
| 2026-04-29 16:31 | -2.14824 | -79.88031 | 28 ft | 10 kts | 51° |
| 2026-04-29 16:32 | -2.14768 | -79.87994 | 28 ft | 10 kts | 31° |
| 2026-04-29 16:32 | -2.14711 | -79.87961 | 28 ft | 9 kts | 30° |
| 2026-04-29 16:32 | -2.14660 | -79.87908 | 28 ft | 12 kts | 65° |
| 2026-04-29 16:32 | -2.14648 | -79.87877 | 28 ft | 0 kts | 70° |
| 2026-04-29 16:34 | -2.14647 | -79.87875 | 28 ft | 2 kts | 71° |
| 2026-04-29 16:34 | -2.14634 | -79.87824 | 27 ft | 10 kts | 78° |
| 2026-04-29 16:34 | -2.14650 | -79.87763 | 27 ft | 9 kts | 134° |
| 2026-04-29 16:35 | -2.14691 | -79.87755 | 27 ft | 5 kts | 207° |
| 2026-04-29 16:35 | -2.14719 | -79.87774 | 26 ft | 6 kts | 213° |
| 2026-04-29 16:35 | -2.14779 | -79.87811 | 26 ft | 14 kts | 210° |
| 2026-04-29 16:35 | -2.14976 | -79.87924 | 28 ft | 66 kts | 210° |
| 2026-04-29 16:36 | -2.15594 | -79.88280 | 27 ft | 135 kts | 210° |
| 2026-04-29 16:36 | -2.16555 | -79.88844 | 134 ft | 177 kts | 211° |
| 2026-04-29 16:36 | -2.17623 | -79.89490 | 830 ft | 180 kts | 211° |
| 2026-04-29 16:36 | -2.18703 | -79.90118 | 1598 ft | 178 kts | 210° |
| 2026-04-29 16:37 | -2.19764 | -79.90720 | 2390 ft | 177 kts | 210° |
| 2026-04-29 16:37 | -2.20969 | -79.91207 | 2798 ft | 199 kts | 187° |
| 2026-04-29 16:37 | -2.22380 | -79.90876 | 2997 ft | 227 kts | 144° |
| 2026-04-29 16:37 | -2.23101 | -79.90092 | 3205 ft | 239 kts | 118° |
| 2026-04-29 16:38 | -2.23279 | -79.87827 | 3610 ft | 267 kts | 70° |
| 2026-04-29 16:38 | -2.22386 | -79.86178 | 4416 ft | 270 kts | 53° |
| 2026-04-29 16:38 | -2.20960 | -79.84943 | 5121 ft | 280 kts | 23° |
| 2026-04-29 16:38 | -2.19053 | -79.84681 | 6016 ft | 279 kts | 352° |
| 2026-04-29 16:39 | -2.17174 | -79.85152 | 6876 ft | 281 kts | 342° |
| 2026-04-29 16:39 | -2.15307 | -79.85787 | 7643 ft | 285 kts | 341° |
| 2026-04-29 16:39 | -2.13375 | -79.86255 | 8383 ft | 290 kts | 0° |
| 2026-04-29 16:39 | -2.11421 | -79.85817 | 9175 ft | 291 kts | 27° |
| 2026-04-29 16:40 | -2.09696 | -79.84814 | 9966 ft | 293 kts | 33° |
| 2026-04-29 16:40 | -2.07924 | -79.83661 | 10382 ft | 311 kts | 34° |
| 2026-04-29 16:40 | -2.06089 | -79.82438 | 10693 ft | 329 kts | 34° |
| 2026-04-29 16:40 | -2.04168 | -79.81158 | 11295 ft | 334 kts | 34° |
| 2026-04-29 16:41 | -2.02222 | -79.79870 | 12002 ft | 337 kts | 34° |
| 2026-04-29 16:41 | -2.00261 | -79.78580 | 12730 ft | 339 kts | 34° |
| 2026-04-29 16:41 | -1.98279 | -79.77283 | 13411 ft | 342 kts | 34° |
| 2026-04-29 16:41 | -1.96273 | -79.75975 | 14044 ft | 346 kts | 34° |
| 2026-04-29 16:42 | -1.94248 | -79.74657 | 14641 ft | 349 kts | 34° |
| 2026-04-29 16:42 | -1.92206 | -79.73328 | 15241 ft | 352 kts | 34° |
| 2026-04-29 16:42 | -1.90167 | -79.72003 | 15832 ft | 355 kts | 34° |
| 2026-04-29 16:42 | -1.88093 | -79.70656 | 16470 ft | 357 kts | 34° |
| 2026-04-29 16:43 | -1.86013 | -79.69306 | 17216 ft | 355 kts | 34° |
| 2026-04-29 16:43 | -1.83949 | -79.67966 | 17978 ft | 353 kts | 34° |
| 2026-04-29 16:43 | -1.81895 | -79.66632 | 18596 ft | 354 kts | 34° |
| 2026-04-29 16:43 | -1.79828 | -79.65290 | 18867 ft | 353 kts | 34° |
| 2026-04-29 16:44 | -1.77767 | -79.63952 | 18917 ft | 355 kts | 34° |
| 2026-04-29 16:44 | -1.75699 | -79.62609 | 18931 ft | 354 kts | 34° |
| 2026-04-29 16:44 | -1.73669 | -79.61291 | 18942 ft | 353 kts | 34° |
| 2026-04-29 16:44 | -1.71619 | -79.59960 | 18942 ft | 353 kts | 34° |
| 2026-04-29 16:45 | -1.69556 | -79.58620 | 18952 ft | 353 kts | 34° |
| 2026-04-29 16:45 | -1.67541 | -79.57312 | 18945 ft | 353 kts | 34° |
| 2026-04-29 16:45 | -1.65431 | -79.55941 | 18956 ft | 353 kts | 34° |
| 2026-04-29 16:45 | -1.63405 | -79.54625 | 18955 ft | 354 kts | 34° |
| 2026-04-29 16:46 | -1.61340 | -79.53284 | 18953 ft | 354 kts | 34° |
| 2026-04-29 16:46 | -1.59278 | -79.51946 | 18971 ft | 354 kts | 34° |
| 2026-04-29 16:46 | -1.57218 | -79.50609 | 19041 ft | 352 kts | 34° |
| 2026-04-29 16:46 | -1.55159 | -79.49272 | 18985 ft | 354 kts | 34° |
| 2026-04-29 16:47 | -1.53127 | -79.47953 | 18985 ft | 352 kts | 34° |
| 2026-04-29 16:47 | -1.51070 | -79.46616 | 18982 ft | 353 kts | 34° |
| 2026-04-29 16:47 | -1.49014 | -79.45281 | 18983 ft | 353 kts | 34° |
| 2026-04-29 16:47 | -1.46954 | -79.43943 | 18985 ft | 353 kts | 34° |
| 2026-04-29 16:48 | -1.44894 | -79.42604 | 18996 ft | 353 kts | 34° |
| 2026-04-29 16:48 | -1.42837 | -79.41268 | 18997 ft | 353 kts | 34° |
| 2026-04-29 16:48 | -1.40789 | -79.39938 | 18999 ft | 353 kts | 34° |
| 2026-04-29 16:48 | -1.38718 | -79.38592 | 19008 ft | 353 kts | 34° |
| 2026-04-29 16:49 | -1.36660 | -79.37255 | 19015 ft | 353 kts | 34° |
| 2026-04-29 16:49 | -1.34629 | -79.35935 | 19023 ft | 353 kts | 34° |
| 2026-04-29 16:49 | -1.32570 | -79.34598 | 19028 ft | 353 kts | 34° |
| 2026-04-29 16:49 | -1.30510 | -79.33259 | 19028 ft | 353 kts | 34° |
| 2026-04-29 16:50 | -1.28454 | -79.31924 | 19039 ft | 353 kts | 34° |
| 2026-04-29 16:50 | -1.26396 | -79.30586 | 19041 ft | 353 kts | 34° |
| 2026-04-29 16:50 | -1.24345 | -79.29253 | 19051 ft | 352 kts | 34° |
| 2026-04-29 16:50 | -1.22286 | -79.27916 | 19060 ft | 352 kts | 34° |
| 2026-04-29 16:51 | -1.20233 | -79.26582 | 19068 ft | 352 kts | 34° |
| 2026-04-29 16:51 | -1.18174 | -79.25245 | 19083 ft | 353 kts | 34° |
| 2026-04-29 16:51 | -1.16149 | -79.23931 | 19085 ft | 354 kts | 34° |
| 2026-04-29 16:51 | -1.14071 | -79.22585 | 19074 ft | 355 kts | 34° |
| 2026-04-29 16:52 | -1.12001 | -79.21245 | 19078 ft | 354 kts | 34° |
| 2026-04-29 16:52 | -1.09935 | -79.19906 | 19092 ft | 353 kts | 34° |
| 2026-04-29 16:52 | -1.07870 | -79.18569 | 19106 ft | 353 kts | 34° |
| 2026-04-29 16:52 | -1.05814 | -79.17236 | 19112 ft | 353 kts | 34° |
| 2026-04-29 16:53 | -1.03751 | -79.15900 | 19115 ft | 353 kts | 34° |
| 2026-04-29 16:53 | -1.01693 | -79.14566 | 19126 ft | 353 kts | 34° |
| 2026-04-29 16:53 | -0.99630 | -79.13228 | 19124 ft | 353 kts | 34° |
| 2026-04-29 16:53 | -0.97577 | -79.11897 | 19132 ft | 352 kts | 34° |
| 2026-04-29 16:54 | -0.95551 | -79.10585 | 19138 ft | 352 kts | 34° |
| 2026-04-29 16:54 | -0.93495 | -79.09253 | 19144 ft | 352 kts | 34° |
| 2026-04-29 16:54 | -0.91439 | -79.07923 | 19152 ft | 353 kts | 34° |
| 2026-04-29 16:54 | -0.89381 | -79.06595 | 19154 ft | 353 kts | 34° |
| 2026-04-29 16:55 | -0.87317 | -79.05264 | 19154 ft | 353 kts | 34° |
| 2026-04-29 16:55 | -0.85255 | -79.03934 | 19160 ft | 353 kts | 34° |
| 2026-04-29 16:55 | -0.83188 | -79.02601 | 19165 ft | 353 kts | 34° |
| 2026-04-29 16:55 | -0.81163 | -79.01223 | 19168 ft | 352 kts | 40° |
| 2026-04-29 16:56 | -0.79392 | -78.99545 | 19170 ft | 351 kts | 51° |
| 2026-04-29 16:56 | -0.77889 | -78.97635 | 19189 ft | 349 kts | 54° |
| 2026-04-29 16:56 | -0.76433 | -78.95691 | 19197 ft | 351 kts | 54° |
| 2026-04-29 16:56 | -0.75086 | -78.93700 | 19194 ft | 350 kts | 64° |
| 2026-04-29 16:57 | -0.74216 | -78.91443 | 19252 ft | 349 kts | 73° |
| 2026-04-29 16:57 | -0.73533 | -78.89114 | 19272 ft | 349 kts | 75° |
| 2026-04-29 16:57 | -0.72885 | -78.86776 | 19290 ft | 347 kts | 75° |
| 2026-04-29 16:57 | -0.72258 | -78.84483 | 19257 ft | 337 kts | 76° |
| 2026-04-29 16:58 | -0.71657 | -78.82272 | 19195 ft | 322 kts | 76° |
| 2026-04-29 16:58 | -0.71084 | -78.80168 | 19028 ft | 307 kts | 76° |
| 2026-04-29 16:58 | -0.70534 | -78.78154 | 18823 ft | 295 kts | 76° |
| 2026-04-29 16:58 | -0.70003 | -78.76215 | 18578 ft | 284 kts | 76° |
| 2026-04-29 16:59 | -0.69496 | -78.74367 | 18297 ft | 275 kts | 76° |
| 2026-04-29 16:59 | -0.68999 | -78.72562 | 18045 ft | 265 kts | 75° |
| 2026-04-29 16:59 | -0.68516 | -78.70812 | 17797 ft | 258 kts | 75° |
| 2026-04-29 16:59 | -0.68040 | -78.69097 | 17546 ft | 254 kts | 76° |
| 2026-04-29 17:00 | -0.67569 | -78.67411 | 17311 ft | 250 kts | 75° |
| 2026-04-29 17:00 | -0.67102 | -78.65749 | 17092 ft | 248 kts | 75° |
| 2026-04-29 17:00 | -0.66637 | -78.64098 | 16870 ft | 245 kts | 75° |
| 2026-04-29 17:00 | -0.66179 | -78.62483 | 16619 ft | 238 kts | 75° |
| 2026-04-29 17:01 | -0.65733 | -78.60917 | 16395 ft | 232 kts | 75° |
| 2026-04-29 17:01 | -0.65299 | -78.59399 | 16176 ft | 228 kts | 75° |
| 2026-04-29 17:01 | -0.64867 | -78.57896 | 15926 ft | 223 kts | 75° |
| 2026-04-29 17:01 | -0.64446 | -78.56434 | 15769 ft | 217 kts | 75° |
| 2026-04-29 17:02 | -0.64027 | -78.54977 | 15577 ft | 219 kts | 75° |
| 2026-04-29 17:02 | -0.63603 | -78.53504 | 15371 ft | 223 kts | 75° |
| 2026-04-29 17:02 | -0.63154 | -78.52009 | 15167 ft | 225 kts | 68° |
| 2026-04-29 17:02 | -0.62264 | -78.50744 | 15047 ft | 225 kts | 42° |
| 2026-04-29 17:03 | -0.60909 | -78.49937 | 15016 ft | 230 kts | 27° |
| 2026-04-29 17:03 | -0.59431 | -78.49283 | 14989 ft | 233 kts | 26° |
| 2026-04-29 17:03 | -0.57968 | -78.48663 | 14982 ft | 231 kts | 25° |
| 2026-04-29 17:03 | -0.56518 | -78.47987 | 14960 ft | 229 kts | 29° |
| 2026-04-29 17:04 | -0.55103 | -78.47250 | 14962 ft | 230 kts | 30° |
| 2026-04-29 17:04 | -0.53694 | -78.46506 | 14959 ft | 229 kts | 30° |
| 2026-04-29 17:04 | -0.52282 | -78.45758 | 14879 ft | 232 kts | 30° |
| 2026-04-29 17:04 | -0.50837 | -78.44988 | 14627 ft | 236 kts | 31° |
| 2026-04-29 17:05 | -0.49394 | -78.44222 | 14383 ft | 234 kts | 30° |
| 2026-04-29 17:05 | -0.47970 | -78.43468 | 14136 ft | 230 kts | 30° |
| 2026-04-29 17:05 | -0.46569 | -78.42726 | 13862 ft | 226 kts | 30° |
| 2026-04-29 17:05 | -0.45195 | -78.41998 | 13553 ft | 222 kts | 30° |
| 2026-04-29 17:06 | -0.43858 | -78.41290 | 13294 ft | 219 kts | 30° |
| 2026-04-29 17:06 | -0.42526 | -78.40578 | 13011 ft | 216 kts | 30° |
| 2026-04-29 17:06 | -0.41204 | -78.39864 | 12741 ft | 217 kts | 30° |
| 2026-04-29 17:06 | -0.39868 | -78.39140 | 12500 ft | 220 kts | 30° |
| 2026-04-29 17:07 | -0.38512 | -78.38407 | 12254 ft | 223 kts | 30° |
| 2026-04-29 17:07 | -0.37144 | -78.37665 | 12031 ft | 224 kts | 30° |
| 2026-04-29 17:07 | -0.35782 | -78.36920 | 11803 ft | 222 kts | 30° |
| 2026-04-29 17:07 | -0.34430 | -78.36176 | 11562 ft | 222 kts | 30° |
| 2026-04-29 17:08 | -0.33064 | -78.35432 | 11299 ft | 225 kts | 29° |
| 2026-04-29 17:08 | -0.31648 | -78.34781 | 10992 ft | 224 kts | 18° |
| 2026-04-29 17:08 | -0.30145 | -78.34498 | 10821 ft | 218 kts | 2° |
| 2026-04-29 17:08 | -0.28668 | -78.34601 | 10664 ft | 212 kts | 353° |
| 2026-04-29 17:09 | -0.27250 | -78.34764 | 10606 ft | 205 kts | 356° |
| 2026-04-29 17:09 | -0.25821 | -78.34855 | 10341 ft | 206 kts | 358° |
| 2026-04-29 17:09 | -0.24400 | -78.34918 | 10053 ft | 201 kts | 358° |
| 2026-04-29 17:09 | -0.23027 | -78.34977 | 9781 ft | 194 kts | 358° |
| 2026-04-29 17:10 | -0.21725 | -78.35033 | 9547 ft | 180 kts | 358° |
| 2026-04-29 17:10 | -0.20504 | -78.35086 | 9266 ft | 171 kts | 357° |
| 2026-04-29 17:10 | -0.19340 | -78.35137 | 9041 ft | 164 kts | 357° |
| 2026-04-29 17:10 | -0.18594 | -78.35170 | 8883 ft | 161 kts | 357° |
| 2026-04-29 17:11 | -0.17250 | -78.35229 | 8589 ft | 162 kts | 357° |
| 2026-04-29 17:11 | -0.16120 | -78.35264 | 8359 ft | 164 kts | 357° |
| 2026-04-29 17:11 | -0.14996 | -78.35321 | 8121 ft | 161 kts | 354° |
| 2026-04-29 17:11 | -0.13873 | -78.35382 | 7900 ft | 160 kts | 354° |
| 2026-04-29 17:12 | -0.12883 | -78.35425 | 7865 ft | 121 kts | 358° |
| 2026-04-29 17:12 | -0.12188 | -78.35454 | 7835 ft | 79 kts | 357° |
| 2026-04-29 17:12 | -0.11815 | -78.35481 | 7819 ft | 30 kts | 338° |
| 2026-04-29 17:12 | -0.11694 | -78.35535 | 7818 ft | 20 kts | 330° |
| 2026-04-29 17:13 | -0.11623 | -78.35585 | 7814 ft | 0 kts | 311° |
| 2026-04-29 17:13 | -0.11620 | -78.35589 | 7814 ft | 4 kts | 308° |
| 2026-04-29 17:13 | -0.11628 | -78.35636 | 7811 ft | 10 kts | 218° |
| 2026-04-29 17:13 | -0.11712 | -78.35643 | 7818 ft | 15 kts | 177° |
| 2026-04-29 17:14 | -0.11831 | -78.35637 | 7822 ft | 19 kts | 178° |
| 2026-04-29 17:14 | -0.11976 | -78.35631 | 7829 ft | 22 kts | 177° |
| 2026-04-29 17:14 | -0.12114 | -78.35626 | 7837 ft | 18 kts | 178° |
| 2026-04-29 17:14 | -0.12258 | -78.35620 | 7840 ft | 19 kts | 177° |
| 2026-04-29 17:15 | -0.12346 | -78.35631 | 7837 ft | 6 kts | 226° |
| 2026-04-29 17:15 | -0.12358 | -78.35682 | 7836 ft | 9 kts | 266° |
| 2026-04-29 17:15 | -0.12362 | -78.35749 | 7834 ft | 10 kts | 267° |
| 2026-04-29 17:15 | -0.12369 | -78.35813 | 7837 ft | 9 kts | 256° |
| 2026-04-29 17:16 | -0.12374 | -78.35877 | 7840 ft | 9 kts | 268° |
| 2026-04-29 17:16 | -0.12376 | -78.35922 | 7838 ft | 3 kts | 268° |
| 2026-04-29 17:16 | -0.12376 | -78.35926 | 7840 ft | 0 kts | 268° |